Time;durP1;ratioP1;P1;durP2;ratioP2;P2;SDS_P1;SDS_P2;PMS_P1;PMS_P2;Temp;Humidity;BMP_temperature;BMP_pressure;BME280_temperature;BME280_humidity;BME280_pressure;Samples;Min_cycle;Max_cycle;Signal;HPM_P1;HPM_P2
2022/04/13 00:00:20;;;;;;;;;;;14.90;72.80;;;;;;2083626;28;19917;-92
2022/04/13 00:01:40;;;;;;;;;;;14.90;72.90;;;;;;2092090;28;19921;-91
2022/04/13 00:02:59;;;;;;;;;;;14.80;72.90;;;;;;2094449;28;19913;-92
2022/04/13 00:04:18;;;;;;;;;;;14.80;72.90;;;;;;2089144;28;19995;-93
2022/04/13 00:05:38;;;;;;;;;;;14.80;72.90;;;;;;2096194;28;19920;-91
2022/04/13 00:06:57;;;;;;;;;;;14.80;73.00;;;;;;2091381;28;19917;-91
2022/04/13 00:08:17;;;;;;;;;;;14.80;73.00;;;;;;2090746;28;19917;-91
2022/04/13 00:09:36;;;;;;;;;;;14.80;73.00;;;;;;2091065;28;20391;-91
2022/04/13 00:10:55;;;;;;;;;;;14.70;73.00;;;;;;2082414;28;19948;-91
2022/04/13 00:12:14;;;;;;;;;;;14.80;73.10;;;;;;2092046;28;19921;-91
2022/04/13 00:13:33;;;;;;;;;;;14.80;73.10;;;;;;2096024;28;19916;-91
2022/04/13 00:14:53;;;;;;;;;;;14.70;73.10;;;;;;2098816;28;19964;-92
2022/04/13 00:16:12;;;;;;;;;;;14.70;73.10;;;;;;2090534;28;19916;-91
2022/04/13 00:17:32;;;;;;;;;;;14.70;73.20;;;;;;2086722;28;20357;-91
2022/04/13 00:18:50;;;;;;;;;;;14.70;73.20;;;;;;2090757;28;19944;-91
2022/04/13 00:20:10;;;;;;;;;;;14.70;73.30;;;;;;2091175;28;19917;-92
2022/04/13 00:21:29;;;;;;;;;;;14.70;73.30;;;;;;2094897;28;19926;-90
2022/04/13 00:22:49;;;;;;;;;;;14.70;73.30;;;;;;2096950;28;19916;-92
2022/04/13 00:24:08;;;;;;;;;;;14.60;73.30;;;;;;2091966;28;20380;-91
2022/04/13 00:25:31;;;;;;;;;;;14.60;73.40;;;;;;2092777;28;19917;-92
2022/04/13 00:26:50;;;;;;;;;;;14.60;73.40;;;;;;2103726;28;19925;-91
2022/04/13 00:28:10;;;;;;;;;;;14.60;73.40;;;;;;2097663;28;19917;-92
2022/04/13 00:29:30;;;;;;;;;;;14.60;73.40;;;;;;2090327;28;19928;-92
2022/04/13 00:30:49;;;;;;;;;;;14.60;73.50;;;;;;2079539;28;19917;-92
2022/04/13 00:32:08;;;;;;;;;;;14.50;73.40;;;;;;2087133;28;19916;-91
2022/04/13 00:33:28;;;;;;;;;;;14.60;73.60;;;;;;2095539;28;19913;-90
2022/04/13 00:34:47;;;;;;;;;;;14.50;73.50;;;;;;2081123;28;19917;-92
2022/04/13 00:36:06;;;;;;;;;;;14.50;73.60;;;;;;2079032;28;19917;-92
2022/04/13 00:37:25;;;;;;;;;;;14.50;73.60;;;;;;2081420;28;19917;-93
2022/04/13 00:38:45;;;;;;;;;;;14.50;73.60;;;;;;2090825;28;19960;-92
2022/04/13 00:40:05;;;;;;;;;;;14.40;73.60;;;;;;2087315;28;19921;-92
2022/04/13 00:41:24;;;;;;;;;;;14.50;73.70;;;;;;2089538;28;19928;-91
2022/04/13 00:42:43;;;;;;;;;;;14.50;73.70;;;;;;2091063;28;19916;-91
2022/04/13 00:44:03;;;;;;;;;;;14.50;73.80;;;;;;2082625;28;19918;-92
2022/04/13 00:45:23;;;;;;;;;;;14.40;73.80;;;;;;2094978;28;19920;-91
2022/04/13 00:46:42;;;;;;;;;;;14.40;73.80;;;;;;2091104;28;19917;-91
2022/04/13 00:48:02;;;;;;;;;;;14.40;73.80;;;;;;2091253;28;19916;-91
2022/04/13 00:49:22;;;;;;;;;;;14.40;73.80;;;;;;2098569;28;19912;-91
2022/04/13 00:50:41;;;;;;;;;;;14.40;73.90;;;;;;2094929;28;19959;-92
2022/04/13 00:52:02;;;;;;;;;;;14.40;73.90;;;;;;2082632;28;19921;-91
2022/04/13 00:53:23;;;;;;;;;;;14.40;74.00;;;;;;2087759;28;19913;-92
2022/04/13 00:54:45;;;;;;;;;;;14.30;73.90;;;;;;2101796;28;19908;-91
2022/04/13 00:56:05;;;;;;;;;;;14.30;74.00;;;;;;2101641;28;19909;-92
2022/04/13 00:57:24;;;;;;;;;;;14.40;74.10;;;;;;2089682;28;20376;-91
2022/04/13 00:58:45;;;;;;;;;;;14.30;74.10;;;;;;2095215;28;19912;-92
2022/04/13 01:00:05;;;;;;;;;;;14.30;74.10;;;;;;2095526;28;19944;-91
2022/04/13 01:01:25;;;;;;;;;;;14.30;74.10;;;;;;2095499;28;20294;-91
2022/04/13 01:02:45;;;;;;;;;;;14.30;74.20;;;;;;2095071;28;19917;-91
2022/04/13 01:04:05;;;;;;;;;;;14.30;74.40;;;;;;2089282;28;19913;-91
2022/04/13 01:05:24;;;;;;;;;;;14.30;74.30;;;;;;2088958;28;19925;-89
2022/04/13 01:06:44;;;;;;;;;;;14.20;74.20;;;;;;2090945;28;19916;-92
2022/04/13 01:08:03;;;;;;;;;;;14.20;74.30;;;;;;2101844;28;20382;-92
2022/04/13 01:09:26;;;;;;;;;;;14.20;74.30;;;;;;2091444;28;20363;-91
2022/04/13 01:10:46;;;;;;;;;;;14.20;74.40;;;;;;2089094;28;19939;-91
2022/04/13 01:12:05;;;;;;;;;;;14.10;74.40;;;;;;2083943;28;19917;-92
2022/04/13 01:13:24;;;;;;;;;;;14.10;74.50;;;;;;2085461;28;19916;-92
2022/04/13 01:14:43;;;;;;;;;;;14.10;74.50;;;;;;2098319;28;19913;-91
2022/04/13 01:16:04;;;;;;;;;;;14.10;74.50;;;;;;2082315;28;19952;-91
2022/04/13 01:17:23;;;;;;;;;;;14.10;74.50;;;;;;2084205;28;20341;-92
2022/04/13 01:18:42;;;;;;;;;;;14.10;74.50;;;;;;2079258;28;19999;-91
2022/04/13 01:20:05;;;;;;;;;;;14.10;74.50;;;;;;2083511;28;19917;-92
2022/04/13 01:21:42;;;;;;;;;;;14.10;74.50;;;;;;2084782;28;19913;-93
2022/04/13 01:23:02;;;;;;;;;;;14.10;74.60;;;;;;2094289;28;19916;-92
2022/04/13 01:24:21;;;;;;;;;;;14.10;74.60;;;;;;2098415;28;19917;-92
2022/04/13 01:25:47;;;;;;;;;;;14.10;74.60;;;;;;2090962;28;19917;-91
2022/04/13 01:27:07;;;;;;;;;;;14.00;74.60;;;;;;2098469;28;20373;-93
2022/04/13 01:28:26;;;;;;;;;;;14.00;74.60;;;;;;2094432;28;19999;-92
2022/04/13 01:29:46;;;;;;;;;;;14.00;74.70;;;;;;2093442;28;19994;-92
2022/04/13 01:31:05;;;;;;;;;;;13.90;74.70;;;;;;2094816;28;19916;-91
2022/04/13 01:32:24;;;;;;;;;;;13.90;74.80;;;;;;2094759;28;20255;-91
2022/04/13 01:33:43;;;;;;;;;;;13.90;74.90;;;;;;2094477;28;19917;-92
2022/04/13 01:35:02;;;;;;;;;;;13.90;74.90;;;;;;2090530;28;20299;-91
2022/04/13 01:36:21;;;;;;;;;;;13.90;74.90;;;;;;2090360;28;20375;-91
2022/04/13 01:37:40;;;;;;;;;;;13.90;75.00;;;;;;2090751;28;19991;-92
2022/04/13 01:39:00;;;;;;;;;;;13.80;75.00;;;;;;2091504;28;19942;-91
2022/04/13 01:40:19;;;;;;;;;;;13.80;75.00;;;;;;2091668;28;19913;-91
2022/04/13 01:41:39;;;;;;;;;;;13.80;75.10;;;;;;2084812;28;19917;-91
2022/04/13 01:42:58;;;;;;;;;;;13.80;75.10;;;;;;2087530;28;19917;-91
2022/04/13 01:44:17;;;;;;;;;;;13.70;75.20;;;;;;2096093;28;19916;-92
2022/04/13 01:45:36;;;;;;;;;;;13.70;75.20;;;;;;2088624;28;20429;-91
2022/04/13 01:46:55;;;;;;;;;;;13.70;75.30;;;;;;2085138;28;19921;-91
2022/04/13 01:48:15;;;;;;;;;;;13.70;75.40;;;;;;2081793;28;19916;-91
2022/04/13 01:49:35;;;;;;;;;;;13.60;75.30;;;;;;2083603;28;19917;-92
2022/04/13 01:50:54;;;;;;;;;;;13.70;75.40;;;;;;2088700;28;20004;-91
2022/04/13 01:52:13;;;;;;;;;;;13.60;75.30;;;;;;2098050;28;19971;-91
2022/04/13 01:53:35;;;;;;;;;;;13.60;75.30;;;;;;2096078;28;19917;-91
2022/04/13 01:54:53;;;;;;;;;;;13.60;75.40;;;;;;2091636;28;19916;-92
2022/04/13 01:56:13;;;;;;;;;;;13.60;75.30;;;;;;2083417;28;19917;-91
2022/04/13 01:57:32;;;;;;;;;;;13.60;75.40;;;;;;2096065;28;19924;-92
2022/04/13 01:58:51;;;;;;;;;;;13.50;75.40;;;;;;2092264;28;19912;-92
2022/04/13 02:00:12;;;;;;;;;;;13.60;75.40;;;;;;2088506;28;19917;-91
2022/04/13 02:01:31;;;;;;;;;;;13.60;75.50;;;;;;2086449;28;19913;-91
2022/04/13 02:02:52;;;;;;;;;;;13.50;75.50;;;;;;2098089;28;19959;-92
2022/04/13 02:04:37;;;;;;;;;;;13.60;75.50;;;;;;2091920;28;19901;-91
2022/04/13 02:05:57;;;;;;;;;;;13.50;75.50;;;;;;2104044;28;19933;-91
2022/04/13 02:07:16;;;;;;;;;;;13.50;75.50;;;;;;2098490;28;19929;-91
2022/04/13 02:08:35;;;;;;;;;;;13.50;75.60;;;;;;2098413;28;19924;-91
2022/04/13 02:09:55;;;;;;;;;;;13.50;75.60;;;;;;2100309;28;19913;-91
2022/04/13 02:11:14;;;;;;;;;;;13.40;75.60;;;;;;2094492;28;19909;-90
2022/04/13 02:12:33;;;;;;;;;;;13.40;75.60;;;;;;2091874;28;19917;-91
2022/04/13 02:13:52;;;;;;;;;;;13.40;75.60;;;;;;2097863;28;19912;-92
2022/04/13 02:15:11;;;;;;;;;;;13.40;75.70;;;;;;2100823;28;19917;-92
2022/04/13 02:16:31;;;;;;;;;;;13.40;75.70;;;;;;2098095;28;19999;-91
2022/04/13 02:17:50;;;;;;;;;;;13.40;75.70;;;;;;2091782;28;19917;-91
2022/04/13 02:19:11;;;;;;;;;;;13.40;75.70;;;;;;2093281;28;19924;-92
2022/04/13 02:20:30;;;;;;;;;;;13.40;75.80;;;;;;2095968;28;19925;-92
2022/04/13 02:21:49;;;;;;;;;;;13.40;75.80;;;;;;2091558;28;20278;-91
2022/04/13 02:23:08;;;;;;;;;;;13.40;75.80;;;;;;2092072;28;19913;-92
2022/04/13 02:24:27;;;;;;;;;;;13.40;75.80;;;;;;2092266;28;19908;-92
2022/04/13 02:25:46;;;;;;;;;;;13.30;75.80;;;;;;2091460;28;19920;-92
2022/04/13 02:27:09;;;;;;;;;;;13.30;75.80;;;;;;2092437;28;19917;-92
2022/04/13 02:28:28;;;;;;;;;;;13.30;75.90;;;;;;2092922;28;19920;-92
2022/04/13 02:29:50;;;;;;;;;;;13.30;75.90;;;;;;2087624;28;19925;-92
2022/04/13 02:31:09;;;;;;;;;;;13.30;75.90;;;;;;2077659;28;19918;-92
2022/04/13 02:32:29;;;;;;;;;;;13.30;76.00;;;;;;2085496;28;20469;-91
2022/04/13 02:33:51;;;;;;;;;;;13.30;76.00;;;;;;2096982;28;20408;-91
2022/04/13 02:35:10;;;;;;;;;;;13.30;76.00;;;;;;2099058;28;19916;-92
2022/04/13 02:36:30;;;;;;;;;;;13.30;76.00;;;;;;2089242;28;19995;-92
2022/04/13 02:37:49;;;;;;;;;;;13.30;76.00;;;;;;2092080;28;20386;-92
2022/04/13 02:39:09;;;;;;;;;;;13.30;76.00;;;;;;2095910;28;19980;-92
2022/04/13 02:40:28;;;;;;;;;;;13.30;76.00;;;;;;2088024;28;19913;-92
2022/04/13 02:41:48;;;;;;;;;;;13.30;76.00;;;;;;2088881;28;19917;-92
2022/04/13 02:43:07;;;;;;;;;;;13.30;76.00;;;;;;2091391;28;19986;-92
2022/04/13 02:44:26;;;;;;;;;;;13.30;76.00;;;;;;2096780;28;19920;-91
2022/04/13 02:45:45;;;;;;;;;;;13.30;76.00;;;;;;2096554;28;19927;-92
2022/04/13 02:47:05;;;;;;;;;;;13.30;76.00;;;;;;2087994;28;19991;-92
2022/04/13 02:48:24;;;;;;;;;;;13.30;76.00;;;;;;2092497;28;19917;-92
2022/04/13 02:49:43;;;;;;;;;;;13.30;76.10;;;;;;2091168;28;20070;-92
2022/04/13 02:51:02;;;;;;;;;;;13.30;76.10;;;;;;2082972;28;19917;-92
2022/04/13 02:52:22;;;;;;;;;;;13.30;76.10;;;;;;2091348;28;19978;-92
2022/04/13 02:53:41;;;;;;;;;;;13.30;76.10;;;;;;2089445;28;19917;-92
2022/04/13 02:55:00;;;;;;;;;;;13.30;76.10;;;;;;2084351;28;19917;-91
2022/04/13 02:56:20;;;;;;;;;;;13.30;76.10;;;;;;2092886;28;19908;-92
2022/04/13 02:57:39;;;;;;;;;;;13.30;76.10;;;;;;2087011;28;19956;-92
2022/04/13 02:58:58;;;;;;;;;;;13.30;76.10;;;;;;2079474;28;20388;-92
2022/04/13 03:00:18;;;;;;;;;;;13.30;76.10;;;;;;2076583;28;19913;-93
2022/04/13 03:01:37;;;;;;;;;;;13.30;76.10;;;;;;2079695;28;19917;-91
2022/04/13 03:02:56;;;;;;;;;;;13.30;76.20;;;;;;2076534;28;20399;-92
2022/04/13 03:04:16;;;;;;;;;;;13.30;76.20;;;;;;2080031;28;19917;-91
2022/04/13 03:05:37;;;;;;;;;;;13.30;76.20;;;;;;2093447;28;19920;-92
2022/04/13 03:06:56;;;;;;;;;;;13.30;76.20;;;;;;2096874;28;19921;-92
2022/04/13 03:08:15;;;;;;;;;;;13.30;76.20;;;;;;2096930;28;20298;-92
2022/04/13 03:09:34;;;;;;;;;;;13.30;76.30;;;;;;2086904;28;19944;-92
2022/04/13 03:10:54;;;;;;;;;;;13.20;76.30;;;;;;2091933;28;19909;-91
2022/04/13 03:12:13;;;;;;;;;;;13.20;76.30;;;;;;2090105;28;19917;-91
2022/04/13 03:13:32;;;;;;;;;;;13.30;76.40;;;;;;2089168;28;19920;-91
2022/04/13 03:14:51;;;;;;;;;;;13.30;77.10;;;;;;2095307;28;19910;-92
2022/04/13 03:16:10;;;;;;;;;;;13.20;76.40;;;;;;2090828;28;19917;-92
2022/04/13 03:17:30;;;;;;;;;;;13.20;76.40;;;;;;2087146;28;20334;-92
2022/04/13 03:18:49;;;;;;;;;;;13.20;76.40;;;;;;2087717;28;19913;-92
2022/04/13 03:20:09;;;;;;;;;;;13.20;76.40;;;;;;2087957;28;19913;-92
2022/04/13 03:21:28;;;;;;;;;;;13.20;76.50;;;;;;2097713;28;19913;-91
2022/04/13 03:22:50;;;;;;;;;;;13.20;76.50;;;;;;2097698;28;19917;-93
2022/04/13 03:24:09;;;;;;;;;;;13.20;76.50;;;;;;2100055;28;19917;-92
2022/04/13 03:25:28;;;;;;;;;;;13.20;76.50;;;;;;2095632;28;19924;-93
2022/04/13 03:26:48;;;;;;;;;;;13.20;76.60;;;;;;2092217;28;19917;-92
2022/04/13 03:28:07;;;;;;;;;;;13.20;76.60;;;;;;2096574;28;19916;-92
2022/04/13 03:29:27;;;;;;;;;;;13.10;76.60;;;;;;2109281;28;19912;-91
2022/04/13 03:30:46;;;;;;;;;;;13.20;76.70;;;;;;2100737;28;19936;-92
2022/04/13 03:32:05;;;;;;;;;;;13.20;76.70;;;;;;2096764;28;19917;-91
2022/04/13 03:33:25;;;;;;;;;;;13.10;76.60;;;;;;2103241;28;19917;-92
2022/04/13 03:34:44;;;;;;;;;;;13.20;76.70;;;;;;2091449;28;19912;-93
2022/04/13 03:36:03;;;;;;;;;;;13.10;76.60;;;;;;2087962;28;19912;-91
2022/04/13 03:37:22;;;;;;;;;;;13.10;76.60;;;;;;2097030;28;19920;-92
2022/04/13 03:38:41;;;;;;;;;;;13.10;76.70;;;;;;2096834;28;24068;-91
2022/04/13 03:40:01;;;;;;;;;;;13.10;76.70;;;;;;2092072;28;20410;-91
2022/04/13 03:41:20;;;;;;;;;;;13.10;76.70;;;;;;2089730;28;19948;-92
2022/04/13 03:42:39;;;;;;;;;;;13.10;76.80;;;;;;2088008;28;19913;-92
2022/04/13 03:43:58;;;;;;;;;;;13.10;76.90;;;;;;2086432;28;19988;-92
2022/04/13 03:45:18;;;;;;;;;;;13.10;76.90;;;;;;2092515;28;19920;-92
2022/04/13 03:46:38;;;;;;;;;;;13.10;76.90;;;;;;2091195;28;19917;-91
2022/04/13 03:47:57;;;;;;;;;;;13.00;76.90;;;;;;2099031;28;19913;-91
2022/04/13 03:49:17;;;;;;;;;;;13.10;77.60;;;;;;2099872;28;19916;-92
2022/04/13 03:50:36;;;;;;;;;;;13.00;77.00;;;;;;2099547;28;19952;-92
2022/04/13 03:51:55;;;;;;;;;;;13.00;77.00;;;;;;2094899;28;19917;-92
2022/04/13 03:53:14;;;;;;;;;;;13.00;77.00;;;;;;2082785;28;19917;-92
2022/04/13 03:54:34;;;;;;;;;;;13.00;77.10;;;;;;2087880;28;20364;-92
2022/04/13 03:55:53;;;;;;;;;;;12.90;77.10;;;;;;2091946;28;20298;-91
2022/04/13 03:57:12;;;;;;;;;;;12.90;77.20;;;;;;2091527;28;19920;-92
2022/04/13 03:58:32;;;;;;;;;;;12.90;77.20;;;;;;2088756;28;19924;-92
2022/04/13 03:59:51;;;;;;;;;;;12.90;77.30;;;;;;2081780;28;20003;-91
2022/04/13 04:01:10;;;;;;;;;;;12.80;77.30;;;;;;2084515;28;19952;-92
2022/04/13 04:02:30;;;;;;;;;;;12.80;77.30;;;;;;2093837;28;19920;-91
2022/04/13 04:03:49;;;;;;;;;;;12.80;77.40;;;;;;2091467;28;19913;-91
2022/04/13 04:05:09;;;;;;;;;;;12.80;77.50;;;;;;2095901;28;19920;-91
2022/04/13 04:06:28;;;;;;;;;;;12.70;77.50;;;;;;2093645;28;20283;-90
2022/04/13 04:07:49;;;;;;;;;;;12.70;77.50;;;;;;2097975;28;19913;-92
2022/04/13 04:09:08;;;;;;;;;;;12.70;77.60;;;;;;2094620;28;19921;-92
2022/04/13 04:10:27;;;;;;;;;;;12.70;77.60;;;;;;2090946;28;20278;-92
2022/04/13 04:11:46;;;;;;;;;;;12.70;77.60;;;;;;2091212;28;19917;-92
2022/04/13 04:13:05;;;;;;;;;;;12.70;77.70;;;;;;2090756;28;21064;-91
2022/04/13 04:14:25;;;;;;;;;;;12.60;77.70;;;;;;2098378;28;20012;-92
2022/04/13 04:15:44;;;;;;;;;;;12.60;77.70;;;;;;2092776;28;19920;-92
2022/04/13 04:17:03;;;;;;;;;;;12.60;77.70;;;;;;2112390;28;19959;-90
2022/04/13 04:18:23;;;;;;;;;;;12.60;77.80;;;;;;2105838;28;19912;-92
2022/04/13 04:19:42;;;;;;;;;;;12.60;77.80;;;;;;2097693;28;19912;-92
2022/04/13 04:21:01;;;;;;;;;;;12.50;77.80;;;;;;2093095;28;19913;-92
2022/04/13 04:22:23;;;;;;;;;;;12.50;77.90;;;;;;2092139;28;19917;-92
2022/04/13 04:23:42;;;;;;;;;;;12.50;78.00;;;;;;2090761;28;19912;-92
2022/04/13 04:25:05;;;;;;;;;;;12.50;78.00;;;;;;2088507;28;20326;-91
2022/04/13 04:26:24;;;;;;;;;;;12.40;78.00;;;;;;2095907;28;19909;-88
2022/04/13 04:27:43;;;;;;;;;;;12.40;78.00;;;;;;2102308;28;19921;-92
2022/04/13 04:29:02;;;;;;;;;;;12.40;78.10;;;;;;2100599;28;19960;-91
2022/04/13 04:30:22;;;;;;;;;;;12.40;78.20;;;;;;2094495;28;19921;-91
2022/04/13 04:31:50;;;;;;;;;;;12.40;78.20;;;;;;2084894;28;19917;-91
2022/04/13 04:33:12;;;;;;;;;;;12.30;78.20;;;;;;2078547;28;20051;-91
2022/04/13 04:34:33;;;;;;;;;;;12.30;78.20;;;;;;2086944;28;19956;-91
2022/04/13 04:35:52;;;;;;;;;;;12.30;78.20;;;;;;2089553;28;19913;-89
2022/04/13 04:37:11;;;;;;;;;;;12.30;78.30;;;;;;2086132;28;20322;-91
2022/04/13 04:38:32;;;;;;;;;;;12.30;78.40;;;;;;2087207;28;19912;-92
2022/04/13 04:39:51;;;;;;;;;;;12.20;78.40;;;;;;2095233;28;19916;-92
2022/04/13 04:41:10;;;;;;;;;;;12.20;78.50;;;;;;2092235;28;19913;-93
2022/04/13 04:42:29;;;;;;;;;;;12.20;78.50;;;;;;2091031;28;20325;-92
2022/04/13 04:43:49;;;;;;;;;;;12.20;78.50;;;;;;2093347;28;20336;-91
2022/04/13 04:45:08;;;;;;;;;;;12.20;78.60;;;;;;2095267;28;19928;-90
2022/04/13 04:46:27;;;;;;;;;;;12.10;78.60;;;;;;2087275;28;19917;-91
2022/04/13 04:47:47;;;;;;;;;;;12.10;78.60;;;;;;2083988;28;20306;-93
2022/04/13 04:49:06;;;;;;;;;;;12.10;78.60;;;;;;2091998;28;19909;-93
2022/04/13 04:50:25;;;;;;;;;;;12.10;78.60;;;;;;2090546;28;19909;-92
2022/04/13 04:51:45;;;;;;;;;;;12.10;78.70;;;;;;2083138;28;19952;-92
2022/04/13 04:53:04;;;;;;;;;;;12.10;78.80;;;;;;2083352;28;20263;-93
2022/04/13 04:54:23;;;;;;;;;;;12.00;78.70;;;;;;2080377;28;20367;-91
2022/04/13 04:55:44;;;;;;;;;;;12.00;78.70;;;;;;2081841;28;19917;-93
2022/04/13 04:57:03;;;;;;;;;;;12.00;78.70;;;;;;2091048;28;19921;-94
2022/04/13 04:58:22;;;;;;;;;;;12.00;78.80;;;;;;2095035;28;19928;-91
2022/04/13 04:59:41;;;;;;;;;;;12.00;78.70;;;;;;2090990;28;19948;-91
2022/04/13 05:01:00;;;;;;;;;;;12.10;78.80;;;;;;2093638;28;19912;-93
2022/04/13 05:02:19;;;;;;;;;;;12.00;78.70;;;;;;2092046;28;19921;-93
2022/04/13 05:03:39;;;;;;;;;;;12.00;78.70;;;;;;2091849;28;19987;-95
2022/04/13 05:04:58;;;;;;;;;;;12.00;78.70;;;;;;2085395;28;19925;-88
2022/04/13 05:06:19;;;;;;;;;;;12.00;78.70;;;;;;2086269;28;19916;-92
2022/04/13 05:07:38;;;;;;;;;;;12.00;78.70;;;;;;2083420;28;19917;-91
2022/04/13 05:08:57;;;;;;;;;;;12.00;78.70;;;;;;2075969;28;20355;-92
2022/04/13 05:10:16;;;;;;;;;;;12.00;78.60;;;;;;2075847;28;19917;-94
2022/04/13 05:11:36;;;;;;;;;;;12.00;78.60;;;;;;2083947;28;20011;-92
2022/04/13 05:12:57;;;;;;;;;;;12.00;78.70;;;;;;2096603;28;19916;-93
2022/04/13 05:14:18;;;;;;;;;;;12.00;78.80;;;;;;2086135;28;20017;-93
2022/04/13 05:15:37;;;;;;;;;;;11.90;78.80;;;;;;2081106;28;19913;-93
2022/04/13 05:16:56;;;;;;;;;;;11.90;78.90;;;;;;2085787;28;19917;-93
2022/04/13 05:18:15;;;;;;;;;;;11.90;78.90;;;;;;2091986;28;19912;-93
2022/04/13 05:19:35;;;;;;;;;;;11.90;78.90;;;;;;2088692;28;19917;-93
2022/04/13 05:20:54;;;;;;;;;;;11.90;79.00;;;;;;2090137;28;19913;-92
2022/04/13 05:22:14;;;;;;;;;;;11.90;79.00;;;;;;2084496;28;19917;-93
2022/04/13 05:23:34;;;;;;;;;;;11.90;79.00;;;;;;2088407;28;19913;-92
2022/04/13 05:24:53;;;;;;;;;;;11.90;79.00;;;;;;2088703;28;19913;-93
2022/04/13 05:26:18;;;;;;;;;;;11.90;79.00;;;;;;2080392;28;19917;-89
2022/04/13 05:27:37;;;;;;;;;;;11.90;78.90;;;;;;2093825;28;19920;-95
2022/04/13 05:28:56;;;;;;;;;;;12.00;79.00;;;;;;2090336;28;20295;-92
2022/04/13 05:30:16;;;;;;;;;;;12.00;79.00;;;;;;2092276;28;20007;-94
2022/04/13 05:31:35;;;;;;;;;;;12.00;78.90;;;;;;2091933;28;20015;-90
2022/04/13 05:32:58;;;;;;;;;;;12.00;78.90;;;;;;2092791;28;19920;-92
2022/04/13 05:34:17;;;;;;;;;;;12.10;78.90;;;;;;2092181;28;19916;-91
2022/04/13 05:35:36;;;;;;;;;;;12.10;78.80;;;;;;2085591;28;20681;-92
2022/04/13 05:36:56;;;;;;;;;;;12.10;78.80;;;;;;2090836;28;20007;-91
2022/04/13 05:38:15;;;;;;;;;;;12.10;78.70;;;;;;2094975;28;19952;-91
2022/04/13 05:39:38;;;;;;;;;;;12.20;78.80;;;;;;2095757;28;19909;-91
2022/04/13 05:40:57;;;;;;;;;;;12.20;78.70;;;;;;2091793;28;19916;-91
2022/04/13 05:42:19;;;;;;;;;;;12.20;78.70;;;;;;2083272;28;19917;-92
2022/04/13 05:43:38;;;;;;;;;;;12.30;78.70;;;;;;2096420;28;19912;-91
2022/04/13 05:44:58;;;;;;;;;;;12.30;78.70;;;;;;2088529;28;19916;-91
2022/04/13 05:46:17;;;;;;;;;;;12.30;78.70;;;;;;2084714;28;19912;-92
2022/04/13 05:47:38;;;;;;;;;;;12.30;78.70;;;;;;2096504;28;19920;-92
2022/04/13 05:48:57;;;;;;;;;;;12.30;78.60;;;;;;2096989;28;19913;-91
2022/04/13 05:50:16;;;;;;;;;;;12.40;78.70;;;;;;2092304;28;19917;-92
2022/04/13 05:51:35;;;;;;;;;;;12.40;78.60;;;;;;2086228;28;19916;-91
2022/04/13 05:52:55;;;;;;;;;;;12.40;78.60;;;;;;2095087;28;19916;-92
2022/04/13 05:54:14;;;;;;;;;;;12.40;78.50;;;;;;2096394;28;19909;-92
2022/04/13 05:55:33;;;;;;;;;;;12.40;78.50;;;;;;2096330;28;19916;-91
2022/04/13 05:56:52;;;;;;;;;;;12.40;78.50;;;;;;2099198;28;20015;-91
2022/04/13 05:58:12;;;;;;;;;;;12.40;78.50;;;;;;2099970;28;19913;-91
2022/04/13 05:59:31;;;;;;;;;;;12.50;78.60;;;;;;2090400;28;19996;-91
2022/04/13 06:00:50;;;;;;;;;;;12.50;78.60;;;;;;2092940;28;19908;-92
2022/04/13 06:02:09;;;;;;;;;;;12.50;78.60;;;;;;2099244;28;19917;-91
2022/04/13 06:03:29;;;;;;;;;;;12.50;78.60;;;;;;2092712;28;19917;-92
2022/04/13 06:04:48;;;;;;;;;;;12.50;78.60;;;;;;2091621;28;19909;-92
2022/04/13 06:06:07;;;;;;;;;;;12.60;78.60;;;;;;2081332;28;19917;-93
2022/04/13 06:07:26;;;;;;;;;;;12.60;78.60;;;;;;2088251;28;19916;-92
2022/04/13 06:08:45;;;;;;;;;;;12.60;78.50;;;;;;2080498;28;19913;-93
2022/04/13 06:10:05;;;;;;;;;;;12.70;78.50;;;;;;2087355;28;19976;-92
2022/04/13 06:11:24;;;;;;;;;;;12.70;78.40;;;;;;2093425;28;20312;-93
2022/04/13 06:12:43;;;;;;;;;;;12.70;78.30;;;;;;2088372;28;19925;-92
2022/04/13 06:14:03;;;;;;;;;;;12.70;78.30;;;;;;2093859;28;20360;-92
2022/04/13 06:15:22;;;;;;;;;;;12.80;78.40;;;;;;2096484;28;20043;-92
2022/04/13 06:16:41;;;;;;;;;;;12.80;78.30;;;;;;2096030;28;19917;-91
2022/04/13 06:18:01;;;;;;;;;;;12.80;78.40;;;;;;2087943;28;19921;-92
2022/04/13 06:19:20;;;;;;;;;;;12.80;78.40;;;;;;2089053;28;19909;-93
2022/04/13 06:20:39;;;;;;;;;;;12.80;78.40;;;;;;2088630;28;20336;-92
2022/04/13 06:21:58;;;;;;;;;;;12.80;78.40;;;;;;2089779;28;19920;-92
2022/04/13 06:23:18;;;;;;;;;;;12.80;78.40;;;;;;2085291;28;20393;-92
2022/04/13 06:24:37;;;;;;;;;;;12.80;78.30;;;;;;2088656;28;19921;-92
2022/04/13 06:25:58;;;;;;;;;;;12.80;78.30;;;;;;2087510;28;19921;-91
2022/04/13 06:27:18;;;;;;;;;;;12.90;78.40;;;;;;2090123;28;19921;-92
2022/04/13 06:28:37;;;;;;;;;;;12.90;78.40;;;;;;2097944;28;20023;-92
2022/04/13 06:29:57;;;;;;;;;;;12.90;78.40;;;;;;2089483;28;19929;-91
2022/04/13 06:31:16;;;;;;;;;;;12.90;78.40;;;;;;2090146;28;20333;-92
2022/04/13 06:32:36;;;;;;;;;;;13.00;78.40;;;;;;2095002;28;20003;-92
2022/04/13 06:33:55;;;;;;;;;;;13.00;78.40;;;;;;2094712;28;19947;-92
2022/04/13 06:35:16;;;;;;;;;;;13.10;78.30;;;;;;2099631;28;20306;-92
2022/04/13 06:36:35;;;;;;;;;;;13.20;78.20;;;;;;2095332;28;19951;-92
2022/04/13 06:37:54;;;;;;;;;;;13.20;78.10;;;;;;2095540;28;20386;-92
2022/04/13 06:39:13;;;;;;;;;;;13.30;78.00;;;;;;2099265;28;19908;-91
2022/04/13 06:40:33;;;;;;;;;;;13.40;77.90;;;;;;2092146;28;20371;-92
2022/04/13 06:41:56;;;;;;;;;;;13.40;77.80;;;;;;2099619;28;19920;-96
2022/04/13 06:43:20;;;;;;;;;;;13.50;77.80;;;;;;2095243;28;19912;-96
2022/04/13 06:44:42;;;;;;;;;;;13.50;77.70;;;;;;2095071;28;19913;-96
2022/04/13 06:46:55;;;;;;;;;;;13.60;77.70;;;;;;2096733;28;20309;-96
2022/04/13 06:48:17;;;;;;;;;;;13.60;77.60;;;;;;2082891;28;19913;-96
2022/04/13 06:49:39;;;;;;;;;;;13.60;77.60;;;;;;2080067;28;19917;-96
2022/04/13 06:50:59;;;;;;;;;;;13.60;77.60;;;;;;2096534;28;19909;-96
2022/04/13 06:52:19;;;;;;;;;;;13.60;77.70;;;;;;2096145;28;19913;-96
2022/04/13 06:53:38;;;;;;;;;;;13.60;77.70;;;;;;2093427;28;20329;-96
2022/04/13 06:54:58;;;;;;;;;;;13.60;77.80;;;;;;2080393;28;19961;-96
2022/04/13 06:56:18;;;;;;;;;;;13.60;77.80;;;;;;2078136;28;20314;-92
2022/04/13 06:57:40;;;;;;;;;;;13.70;77.90;;;;;;2102426;28;19908;-92
2022/04/13 06:58:59;;;;;;;;;;;13.60;78.00;;;;;;2095017;28;19916;-92
2022/04/13 07:00:18;;;;;;;;;;;13.70;78.00;;;;;;2087587;28;20375;-91
2022/04/13 07:01:37;;;;;;;;;;;13.70;78.00;;;;;;2092628;28;19909;-91
2022/04/13 07:02:57;;;;;;;;;;;13.70;78.00;;;;;;2087470;28;19917;-91
2022/04/13 07:04:17;;;;;;;;;;;13.70;78.00;;;;;;2079617;28;19925;-93
2022/04/13 07:05:37;;;;;;;;;;;13.80;78.00;;;;;;2089411;28;19968;-92
2022/04/13 07:06:57;;;;;;;;;;;13.80;77.90;;;;;;2088369;28;19921;-91
2022/04/13 07:08:16;;;;;;;;;;;13.80;78.00;;;;;;2095586;28;20359;-91
2022/04/13 07:09:35;;;;;;;;;;;13.80;77.90;;;;;;2092704;28;19916;-91
2022/04/13 07:10:54;;;;;;;;;;;13.80;78.00;;;;;;2091516;28;19909;-92
2022/04/13 07:12:13;;;;;;;;;;;13.90;78.10;;;;;;2099413;28;19983;-91
2022/04/13 07:13:33;;;;;;;;;;;13.90;78.10;;;;;;2100011;28;19925;-91
2022/04/13 07:14:54;;;;;;;;;;;13.90;78.00;;;;;;2096415;28;20339;-91
2022/04/13 07:16:13;;;;;;;;;;;14.00;78.10;;;;;;2092659;28;20295;-92
2022/04/13 07:17:32;;;;;;;;;;;13.90;78.00;;;;;;2092700;28;19921;-92
2022/04/13 07:18:52;;;;;;;;;;;13.90;78.10;;;;;;2090739;28;19917;-91
2022/04/13 07:20:11;;;;;;;;;;;14.00;78.10;;;;;;2092927;28;19917;-91
2022/04/13 07:21:30;;;;;;;;;;;14.00;78.10;;;;;;2098591;28;19913;-91
2022/04/13 07:22:50;;;;;;;;;;;14.00;78.00;;;;;;2099619;28;19920;-92
2022/04/13 07:24:10;;;;;;;;;;;14.00;78.10;;;;;;2091101;28;19917;-91
2022/04/13 07:25:30;;;;;;;;;;;14.10;78.10;;;;;;2094211;28;19921;-91
2022/04/13 07:26:49;;;;;;;;;;;14.10;78.00;;;;;;2091410;28;19913;-92
2022/04/13 07:28:08;;;;;;;;;;;14.10;78.00;;;;;;2092384;28;19951;-91
2022/04/13 07:29:28;;;;;;;;;;;14.20;78.00;;;;;;2089046;28;19917;-92
2022/04/13 07:30:47;;;;;;;;;;;14.20;78.00;;;;;;2090968;28;19925;-91
2022/04/13 07:32:06;;;;;;;;;;;14.20;77.90;;;;;;2091543;28;19909;-91
2022/04/13 07:33:26;;;;;;;;;;;14.30;77.90;;;;;;2090970;28;19925;-92
2022/04/13 07:34:45;;;;;;;;;;;14.40;77.90;;;;;;2093149;28;19959;-91
2022/04/13 07:36:04;;;;;;;;;;;14.40;77.90;;;;;;2096305;28;19957;-92
2022/04/13 07:37:24;;;;;;;;;;;14.40;77.80;;;;;;2095972;28;19952;-91
2022/04/13 07:38:43;;;;;;;;;;;14.50;77.90;;;;;;2101166;28;19913;-91
2022/04/13 07:40:04;;;;;;;;;;;14.50;77.80;;;;;;2105488;28;19916;-92
2022/04/13 07:41:23;;;;;;;;;;;14.50;77.70;;;;;;2096501;28;19988;-91
2022/04/13 07:42:43;;;;;;;;;;;14.60;77.70;;;;;;2107853;28;19908;-90
2022/04/13 07:44:02;;;;;;;;;;;14.70;77.70;;;;;;2103638;28;19917;-91